Time;durP1;ratioP1;P1;durP2;ratioP2;P2;SDS_P1;SDS_P2;PMS_P1;PMS_P2;Temp;Humidity;BMP_temperature;BMP_pressure;BME280_temperature;BME280_humidity;BME280_pressure;Samples;Min_cycle;Max_cycle;Signal;HPM_P1;HPM_P2
2022/03/27 00:00:08;;;;;;;11.32;5.40;;;;;;;7.19;93.99;103066.09;4933993;29;20051;-90
2022/03/27 00:09:01;;;;;;;10.68;6.03;;;;;;;7.03;93.93;103073.22;4896478;29;20055;-90
2022/03/27 00:11:28;;;;;;;12.37;5.93;;;;;;;6.96;94.70;103065.13;4895436;29;20025;-90
2022/03/27 00:27:01;;;;;;;8.77;4.50;;;;;;;6.74;95.59;103071.28;4890256;29;20127;-90
2022/03/27 00:29:27;;;;;;;10.43;5.30;;;;;;;6.65;95.73;103075.81;4892227;29;20133;-89
2022/03/27 00:31:53;;;;;;;9.17;5.13;;;;;;;6.56;96.59;103075.06;4931927;29;20036;-91
2022/03/27 00:34:21;;;;;;;9.48;5.30;;;;;;;6.57;96.46;103075.91;4944167;29;20035;-92
2022/03/27 00:36:48;;;;;;;11.67;5.97;;;;;;;6.54;98.37;103070.91;4929256;29;20054;-91
2022/03/27 00:39:13;;;;;;;12.10;5.93;;;;;;;6.50;98.89;103065.09;4926916;29;20324;-91
2022/03/27 00:41:39;;;;;;;14.23;5.97;;;;;;;6.48;99.80;103062.59;4940741;29;20067;-91
2022/03/27 00:44:04;;;;;;;9.17;5.30;;;;;;;6.56;99.01;103068.91;4933863;29;20075;-92
2022/03/27 00:46:30;;;;;;;12.52;5.32;;;;;;;6.50;98.65;103068.59;4931243;29;20030;-91
2022/03/27 00:48:55;;;;;;;10.40;5.33;;;;;;;6.46;98.82;103069.94;4914708;29;20408;-91
2022/03/27 00:51:20;;;;;;;7.70;5.00;;;;;;;6.37;97.79;103065.69;4914545;29;20040;-91
2022/03/27 00:53:46;;;;;;;8.17;4.83;;;;;;;6.35;97.90;103071.16;4914632;29;20387;-91
2022/03/27 00:56:11;;;;;;;6.90;4.63;;;;;;;6.25;97.37;103067.91;4919436;29;20047;-91
2022/03/27 00:58:36;;;;;;;11.07;5.25;;;;;;;6.17;97.84;103060.78;4931666;29;20400;-90
2022/03/27 01:01:03;;;;;;;13.43;5.07;;;;;;;6.14;98.36;103066.44;4933591;29;20047;-91
2022/03/27 01:03:31;;;;;;;9.85;4.70;;;;;;;6.08;98.22;103069.78;4932801;29;20110;-92
2022/03/27 01:06:00;;;;;;;9.40;5.43;;;;;;;6.03;98.93;103058.81;4933034;29;20133;-90
2022/03/27 01:11:16;;;;;;;8.60;5.13;;;;;;;6.05;99.36;103064.78;4932793;29;20191;-91
2022/03/27 01:13:47;;;;;;;9.27;5.63;;;;;;;6.06;100.00;103063.78;4909588;29;20063;-92
2022/03/27 01:16:17;;;;;;;13.60;6.10;;;;;;;6.09;100.00;103057.31;4897694;29;20300;-92
2022/03/27 01:18:43;;;;;;;13.13;6.05;;;;;;;6.09;100.00;103052.00;4898827;29;20507;-92
2022/03/27 01:26:58;;;;;;;13.30;6.05;;;;;;;6.06;100.00;103054.00;4913790;29;20059;-91
2022/03/27 01:29:23;;;;;;;9.30;5.30;;;;;;;6.04;100.00;103053.34;4904224;29;20106;-91
2022/03/27 01:31:51;;;;;;;9.40;5.13;;;;;;;5.91;100.00;103032.56;4917109;29;20765;-93
2022/03/27 01:34:17;;;;;;;13.85;5.90;;;;;;;5.89;100.00;103044.38;4917050;29;20040;-92
2022/03/27 01:36:42;;;;;;;9.97;5.57;;;;;;;5.86;100.00;103045.53;4917790;29;20147;-92
2022/03/27 01:43:04;;;;;;;12.52;5.30;;;;;;;5.79;100.00;103055.22;4907903;29;20469;-92
2022/03/27 01:45:31;;;;;;;12.15;5.55;;;;;;;5.74;100.00;103054.91;4905873;29;20086;-92
2022/03/27 01:47:57;;;;;;;10.20;5.70;;;;;;;5.67;100.00;103054.75;4916566;29;20460;-92
2022/03/27 01:50:23;;;;;;;10.23;5.90;;;;;;;5.56;100.00;103045.28;4916740;29;20039;-92
2022/03/27 01:52:48;;;;;;;9.70;5.17;;;;;;;5.53;100.00;103056.25;4915987;29;20020;-92
2022/03/27 01:55:16;;;;;;;12.83;5.73;;;;;;;5.46;100.00;103053.44;4916038;29;20038;-92
2022/03/27 01:57:42;;;;;;;10.98;5.97;;;;;;;5.44;100.00;103055.44;4899239;29;20111;-92
2022/03/27 02:00:09;;;;;;;12.57;6.13;;;;;;;5.44;100.00;103051.97;4899985;29;20052;-92
2022/03/27 02:02:35;;;;;;;13.63;7.00;;;;;;;5.50;100.00;103053.94;4915379;29;20329;-92
2022/03/27 02:05:01;;;;;;;13.23;7.63;;;;;;;5.54;100.00;103049.94;4916786;29;20081;-92
2022/03/27 02:07:26;;;;;;;14.37;6.97;;;;;;;5.52;100.00;103051.94;4916112;29;20030;-92
2022/03/27 02:09:52;;;;;;;14.03;6.50;;;;;;;5.55;100.00;103050.78;4897868;29;20303;-92
2022/03/27 02:12:17;;;;;;;12.97;6.60;;;;;;;5.50;100.00;103047.81;4916257;29;20662;-91
2022/03/27 02:14:43;;;;;;;10.77;5.90;;;;;;;5.46;100.00;103040.16;4915364;29;20027;-92
2022/03/27 02:17:09;;;;;;;13.60;6.15;;;;;;;5.51;100.00;103047.63;4915730;29;20028;-92
2022/03/27 02:22:19;;;;;;;16.25;6.90;;;;;;;5.50;100.00;103050.47;4922537;23;20068;-91
2022/03/27 02:24:45;;;;;;;12.57;7.10;;;;;;;5.45;100.00;103037.69;4916217;29;20566;-92
2022/03/27 02:27:10;;;;;;;13.43;6.47;;;;;;;5.45;100.00;103045.66;4915443;29;20035;-92
2022/03/27 02:29:36;;;;;;;15.30;6.83;;;;;;;5.37;100.00;103029.69;4917704;29;20032;-91
2022/03/27 02:32:01;;;;;;;15.83;7.50;;;;;;;5.49;100.00;103046.97;4917043;29;20095;-92
2022/03/27 02:34:26;;;;;;;13.10;7.20;;;;;;;5.58;100.00;103047.78;4914163;29;20054;-92
2022/03/27 02:36:53;;;;;;;15.35;7.93;;;;;;;5.72;100.00;103049.75;4917349;29;20035;-92
2022/03/27 02:39:19;;;;;;;14.00;7.23;;;;;;;5.79;100.00;103052.56;4927711;29;20024;-91
2022/03/27 02:41:45;;;;;;;15.60;7.80;;;;;;;5.92;100.00;103052.03;4938420;29;20283;-91
2022/03/27 02:44:39;;;;;;;21.15;8.57;;;;;;;6.04;100.00;103053.34;5115729;23;20047;-91
2022/03/27 02:50:47;;;;;;;16.48;9.20;;;;;;;6.14;100.00;103034.50;4875187;29;20115;-91
2022/03/27 02:53:50;;;;;;;16.73;9.23;;;;;;;6.39;100.00;103053.00;4936964;29;20042;-91
2022/03/27 03:03:01;;;;;;;19.33;9.50;;;;;;;6.64;100.00;103039.53;4956767;29;20475;-91
2022/03/27 03:05:27;;;;;;;22.83;11.15;;;;;;;6.76;100.00;103053.28;4957189;29;20119;-92
2022/03/27 03:07:52;;;;;;;23.03;11.53;;;;;;;6.75;100.00;103052.47;4955674;29;20034;-92
2022/03/27 03:10:18;;;;;;;23.03;11.80;;;;;;;6.80;100.00;103039.41;4975302;29;20054;-91
2022/03/27 03:12:44;;;;;;;25.75;12.05;;;;;;;6.81;100.00;103032.25;4977245;29;20070;-91
2022/03/27 03:15:09;;;;;;;21.13;11.88;;;;;;;6.86;100.00;103042.38;4970360;28;20023;-92
2022/03/27 03:17:36;;;;;;;24.07;11.90;;;;;;;6.84;100.00;103028.41;4974550;29;20035;-91
2022/03/27 03:20:02;;;;;;;23.08;11.73;;;;;;;6.89;100.00;103039.38;4974698;29;20041;-91
2022/03/27 03:22:27;;;;;;;21.98;12.13;;;;;;;6.91;100.00;103045.34;4974934;29;20016;-90
2022/03/27 03:24:53;;;;;;;20.37;11.43;;;;;;;6.89;100.00;103036.69;4961222;29;20055;-91
2022/03/27 03:27:18;;;;;;;21.67;10.97;;;;;;;6.95;100.00;103031.47;4937710;29;20035;-91
2022/03/27 03:29:43;;;;;;;20.60;11.63;;;;;;;7.00;100.00;103036.25;4954550;29;20027;-91
2022/03/27 03:32:09;;;;;;;22.97;11.23;;;;;;;7.02;100.00;103028.09;4954279;29;20131;-92
2022/03/27 03:34:35;;;;;;;20.40;11.90;;;;;;;7.00;100.00;103036.25;4936774;29;20023;-90
2022/03/27 03:37:03;;;;;;;20.52;10.98;;;;;;;6.97;100.00;103023.28;4936598;29;20031;-91
2022/03/27 03:39:28;;;;;;;17.03;10.10;;;;;;;7.02;100.00;103036.09;4934859;29;20042;-91
2022/03/27 03:41:53;;;;;;;19.83;10.93;;;;;;;7.05;100.00;103022.38;4958497;28;20275;-92
2022/03/27 03:44:19;;;;;;;21.80;11.40;;;;;;;7.05;100.00;103028.56;4954032;28;20462;-91
2022/03/27 03:46:46;;;;;;;20.10;10.80;;;;;;;7.05;100.00;103012.56;4936655;29;20035;-91
2022/03/27 03:49:12;;;;;;;22.15;11.88;;;;;;;7.10;100.00;103018.19;4937065;29;20027;-92
2022/03/27 03:51:37;;;;;;;21.63;11.93;;;;;;;7.08;100.00;103030.03;4954496;29;20118;-91
2022/03/27 03:54:04;;;;;;;23.97;12.93;;;;;;;7.04;100.00;103028.72;4936960;29;20182;-91
2022/03/27 03:56:29;;;;;;;23.55;12.02;;;;;;;7.05;100.00;103025.91;4953440;29;20031;-92
2022/03/27 03:58:55;;;;;;;21.25;12.27;;;;;;;7.04;100.00;103029.56;4954488;29;20367;-91
2022/03/27 04:01:20;;;;;;;26.00;14.00;;;;;;;7.01;100.00;103034.44;4953953;29;20038;-91
2022/03/27 04:03:45;;;;;;;24.43;12.37;;;;;;;6.97;100.00;103020.63;4954564;29;20372;-92
2022/03/27 04:06:10;;;;;;;26.93;14.13;;;;;;;6.99;100.00;103028.47;4954192;29;20031;-92
2022/03/27 04:08:36;;;;;;;24.83;12.77;;;;;;;7.01;100.00;103040.59;4956291;29;20035;-92
2022/03/27 04:11:02;;;;;;;25.42;13.45;;;;;;;7.00;100.00;103046.94;4955662;29;20185;-91
2022/03/27 04:13:27;;;;;;;23.93;12.47;;;;;;;6.97;100.00;103036.63;4943603;29;20039;-91
2022/03/27 04:15:52;;;;;;;24.92;12.63;;;;;;;6.99;100.00;103044.44;4936929;29;20087;-91
2022/03/27 04:18:18;;;;;;;30.07;14.80;;;;;;;6.92;100.00;103031.03;4954885;29;20024;-91
2022/03/27 04:20:45;;;;;;;27.30;14.73;;;;;;;6.97;100.00;103025.97;4954256;29;20054;-91
2022/03/27 04:23:10;;;;;;;26.95;14.73;;;;;;;6.94;100.00;103031.66;4940970;29;20099;-91
2022/03/27 04:25:35;;;;;;;24.47;13.10;;;;;;;6.97;100.00;103037.47;4949097;29;20031;-91
2022/03/27 04:28:35;;;;;;;25.67;13.93;;;;;;;6.82;100.00;103000.09;4955134;29;20114;-92
2022/03/27 04:35:15;;;;;;;24.77;14.15;;;;;;;6.82;100.00;103000.09;4967530;29;20071;-92
2022/03/27 04:37:41;;;;;;;25.75;13.98;;;;;;;7.04;100.00;103034.91;4879350;29;20051;-91
2022/03/27 04:40:09;;;;;;;27.33;14.55;;;;;;;7.02;100.00;103031.59;4920545;29;20475;-92
2022/03/27 04:42:34;;;;;;;24.77;14.48;;;;;;;7.03;100.00;103025.25;4952905;29;20125;-92
2022/03/27 04:44:59;;;;;;;23.87;13.90;;;;;;;6.97;100.00;103020.63;4955066;29;20047;-92
2022/03/27 04:47:25;;;;;;;28.10;15.73;;;;;;;7.03;100.00;103030.59;4954327;29;20390;-92
2022/03/27 04:49:51;;;;;;;28.42;15.23;;;;;;;6.88;100.00;103017.19;4959301;28;20031;-93
2022/03/27 04:52:16;;;;;;;28.25;16.27;;;;;;;6.96;100.00;103032.28;4957261;29;20110;-91
2022/03/27 04:54:42;;;;;;;32.93;14.93;;;;;;;6.89;100.00;103023.38;4959089;29;20487;-91
2022/03/27 04:57:44;;;;;;;39.27;17.17;;;;;;;6.89;100.00;103034.84;4957241;29;20023;-91
2022/03/27 05:00:25;;;;;;;34.47;17.27;;;;;;;6.76;100.00;103027.44;4958164;29;20047;-91
2022/03/27 05:05:34;;;;;;;26.10;13.25;;;;;;;6.78;100.00;103036.09;5198360;23;20439;-91
2022/03/27 05:08:58;;;;;;;;;;;;;;;;;;;;;
2022/03/27 05:15:30;;;;;;;27.00;12.60;;;;;;;6.66;100.00;103032.19;4920320;23;20127;-91
2022/03/27 05:18:25;;;;;;;;;;;;;;;;;;;;;
2022/03/27 05:21:09;;;;;;;24.80;11.68;;;;;;;6.76;100.00;103062.09;4920191;29;20030;-92
2022/03/27 12:08:11;;;;;;;17.88;9.95;;;;;;;14.03;64.98;102979.78;5340983;23;20059;-88
2022/03/27 12:10:45;;;;;;;17.63;11.00;;;;;;;14.18;65.06;102982.03;4933779;29;20032;-90
2022/03/27 12:13:58;;;;;;;17.80;11.00;;;;;;;14.34;65.67;102977.88;5204412;23;20476;-90
2022/03/27 12:16:37;;;;;;;18.30;11.70;;;;;;;14.46;64.41;102968.97;4914117;29;20039;-89
2022/03/27 12:19:35;;;;;;;19.37;11.17;;;;;;;14.71;66.68;102968.00;4914212;29;20295;-91
2022/03/27 12:23:00;;;;;;;18.75;10.60;;;;;;;14.82;64.66;102961.78;4900050;29;20044;-91
2022/03/27 12:25:32;;;;;;;14.77;10.30;;;;;;;14.82;62.29;102932.94;4820984;29;20053;-88
2022/03/27 12:31:00;;;;;;;22.10;11.60;;;;;;;14.88;59.81;102933.06;4883325;29;20178;-89
2022/03/27 12:33:32;;;;;;;17.30;9.90;;;;;;;15.02;61.51;102922.81;4898179;29;20059;-89
2022/03/27 12:36:22;;;;;;;17.13;10.85;;;;;;;15.24;61.52;102933.81;4914615;29;20384;-89
2022/03/27 12:38:48;;;;;;;15.90;9.95;;;;;;;15.17;58.43;102917.72;4914949;29;20028;-89
2022/03/27 12:41:53;;;;;;;15.03;9.67;;;;;;;15.37;60.65;102928.16;4897687;29;20039;-90
2022/03/27 12:44:51;;;;;;;13.57;8.73;;;;;;;15.47;58.41;102929.41;4903676;29;20044;-90
2022/03/27 12:47:17;;;;;;;12.93;8.77;;;;;;;15.60;56.58;102913.75;4914878;29;20040;-90
2022/03/27 12:49:50;;;;;;;11.93;8.37;;;;;;;15.83;54.84;102921.97;4915552;29;20088;-90
2022/03/27 12:52:16;;;;;;;13.50;9.55;;;;;;;15.84;53.41;102919.06;4916625;29;20056;-91
2022/03/27 12:54:58;;;;;;;15.68;7.65;;;;;;;15.87;53.88;102913.19;4915818;29;20044;-91
2022/03/27 12:57:24;;;;;;;11.02;7.13;;;;;;;15.97;49.47;102912.56;4912422;29;20040;-89
2022/03/27 12:59:50;;;;;;;12.32;7.65;;;;;;;16.05;49.44;102900.53;4913152;29;20187;-87
2022/03/27 13:02:26;;;;;;;12.67;7.37;;;;;;;16.18;50.45;102902.91;4914131;29;20112;-85
2022/03/27 13:05:00;;;;;;;11.07;6.95;;;;;;;16.17;50.04;102901.25;4913181;29;20496;-86
2022/03/27 13:07:54;;;;;;;13.40;7.00;;;;;;;16.23;48.40;102904.06;4889916;29;20056;-86
2022/03/27 13:10:21;;;;;;;11.95;6.38;;;;;;;16.32;48.40;102903.41;4912603;29;20028;-87
2022/03/27 13:13:00;;;;;;;9.80;7.10;;;;;;;16.42;48.70;102893.78;4916465;29;20404;-86
2022/03/27 13:15:42;;;;;;;12.20;7.00;;;;;;;16.46;49.10;102892.25;4913917;29;20166;-88
2022/03/27 13:18:17;;;;;;;9.67;6.73;;;;;;;16.53;45.52;102886.66;4915600;29;20032;-87
2022/03/27 13:20:45;;;;;;;10.70;7.43;;;;;;;16.56;45.87;102869.94;4899279;29;20383;-88
2022/03/27 13:23:10;;;;;;;10.40;6.60;;;;;;;16.57;44.47;102866.97;4899713;29;20024;-89
2022/03/27 13:25:37;;;;;;;12.00;7.00;;;;;;;16.62;44.52;102879.75;4899106;29;20028;-88
2022/03/27 13:28:06;;;;;;;10.67;6.10;;;;;;;16.57;44.05;102866.97;4899960;29;20663;-89
2022/03/27 13:30:33;;;;;;;11.05;6.38;;;;;;;16.51;42.80;102867.97;4920956;29;20480;-88
2022/03/27 13:32:59;;;;;;;9.65;6.55;;;;;;;16.39;41.70;102864.53;4915696;29;20027;-88
2022/03/27 13:35:26;;;;;;;10.55;6.22;;;;;;;16.46;42.02;102860.56;4900012;29;20400;-88
2022/03/27 13:37:53;;;;;;;11.93;5.57;;;;;;;16.54;40.71;102851.22;4915344;29;20020;-88
2022/03/27 13:40:19;;;;;;;9.77;5.20;;;;;;;16.64;41.58;102853.25;4916486;29;20032;-88
2022/03/27 13:43:00;;;;;;;6.97;5.78;;;;;;;16.71;40.68;102853.91;4916546;29;20040;-88
2022/03/27 13:45:31;;;;;;;8.73;6.30;;;;;;;16.71;40.17;102845.78;4913663;29;20036;-89
2022/03/27 13:47:56;;;;;;;9.20;5.43;;;;;;;16.78;40.36;102845.59;4900484;29;20428;-89
2022/03/27 13:50:24;;;;;;;8.93;5.85;;;;;;;16.85;40.21;102846.22;4916416;29;20182;-88
2022/03/27 13:52:50;;;;;;;10.90;6.10;;;;;;;16.89;39.65;102849.25;4918553;29;20036;-88
2022/03/27 13:55:15;;;;;;;11.10;6.72;;;;;;;16.88;39.91;102839.50;4916671;29;20028;-88
2022/03/27 13:57:41;;;;;;;11.83;5.90;;;;;;;16.94;40.04;102833.06;4917248;29;20043;-88
2022/03/27 14:00:08;;;;;;;9.27;6.00;;;;;;;17.04;39.86;102843.25;4920210;29;20288;-88
2022/03/27 14:02:35;;;;;;;10.98;6.38;;;;;;;17.02;39.55;102839.97;4915594;29;20039;-90
2022/03/27 14:05:01;;;;;;;9.80;6.40;;;;;;;17.10;39.13;102837.63;4918258;29;20083;-91
2022/03/27 14:07:26;;;;;;;7.83;5.90;;;;;;;17.26;40.05;102835.09;4921413;29;20292;-89
2022/03/27 14:09:51;;;;;;;8.47;5.50;;;;;;;17.32;39.61;102841.38;4917091;29;20024;-86
2022/03/27 14:12:17;;;;;;;10.73;5.55;;;;;;;17.33;38.26;102833.00;4914298;29;20440;-88
2022/03/27 14:14:42;;;;;;;10.17;5.87;;;;;;;17.37;37.62;102834.13;4914667;29;20106;-88
2022/03/27 14:17:10;;;;;;;8.97;4.90;;;;;;;17.34;36.42;102836.53;4912368;29;20407;-86
2022/03/27 14:19:37;;;;;;;7.85;5.00;;;;;;;17.27;36.15;102834.03;4915014;29;20046;-86
2022/03/27 14:22:03;;;;;;;10.73;5.33;;;;;;;17.24;36.08;102829.94;4914403;29;20062;-86
2022/03/27 14:24:29;;;;;;;7.17;5.07;;;;;;;17.36;37.43;102823.53;4913248;29;20640;-87
2022/03/27 14:26:54;;;;;;;11.15;5.95;;;;;;;17.54;38.64;102825.06;4915577;29;20028;-87
2022/03/27 14:29:20;;;;;;;10.23;6.20;;;;;;;17.38;36.46;102805.94;4913263;29;20047;-90
2022/03/27 14:31:46;;;;;;;9.05;5.93;;;;;;;17.38;36.55;102811.38;4901537;29;20043;-87
2022/03/27 14:34:11;;;;;;;8.83;5.60;;;;;;;17.41;37.18;102799.22;4914352;29;20028;-87
2022/03/27 14:36:37;;;;;;;10.57;5.80;;;;;;;17.55;36.08;102805.00;4916173;29;20059;-87
2022/03/27 14:39:03;;;;;;;9.73;6.07;;;;;;;17.38;35.82;102799.72;4898215;29;20036;-86
2022/03/27 14:41:29;;;;;;;8.60;5.80;;;;;;;17.40;36.04;102803.00;4915070;29;20404;-85
2022/03/27 14:43:54;;;;;;;12.80;6.20;;;;;;;17.31;35.39;102794.50;4914542;29;20024;-87
2022/03/27 14:46:20;;;;;;;7.70;5.45;;;;;;;17.48;35.33;102805.22;4915607;29;20032;-86
2022/03/27 14:48:46;;;;;;;10.77;5.57;;;;;;;17.58;36.41;102795.56;4914409;29;20033;-88
2022/03/27 14:51:11;;;;;;;9.53;4.83;;;;;;;17.52;35.67;102797.41;4915330;29;20032;-87
2022/03/27 14:56:21;;;;;;;9.15;6.07;;;;;;;17.35;34.61;102800.22;4916604;29;20046;-86
2022/03/27 14:58:48;;;;;;;14.23;5.65;;;;;;;17.29;35.17;102791.25;4915776;29;20252;-89
2022/03/27 15:01:13;;;;;;;12.15;5.30;;;;;;;17.41;35.87;102794.59;4915655;29;20509;-89
2022/03/27 15:03:40;;;;;;;8.40;5.40;;;;;;;17.48;34.92;102793.59;4911871;29;20119;-87
2022/03/27 15:06:06;;;;;;;7.07;4.70;;;;;;;17.53;36.27;102796.31;4913176;29;20044;-87
2022/03/27 15:08:31;;;;;;;8.48;5.90;;;;;;;17.46;35.08;102793.81;4915661;29;20036;-87
2022/03/27 15:10:57;;;;;;;11.30;6.00;;;;;;;17.40;36.19;102786.75;4914636;29;20067;-85
2022/03/27 15:13:23;;;;;;;12.67;6.40;;;;;;;17.37;34.90;102774.50;4916125;29;20032;-95
2022/03/27 15:15:49;;;;;;;9.65;6.32;;;;;;;17.41;36.11;102782.97;4929605;29;20067;-94
2022/03/27 15:18:14;;;;;;;8.63;5.93;;;;;;;17.48;36.34;102774.63;4937094;29;20061;-94
2022/03/27 15:20:41;;;;;;;11.73;6.00;;;;;;;17.54;35.40;102770.84;4924817;29;20107;-94
2022/03/27 15:36:53;;;;;;;10.45;5.50;;;;;;;17.67;37.52;102758.78;5291451;23;20060;-87
2022/03/27 15:43:28;;;;;;;11.27;5.93;;;;;;;17.63;37.19;102763.91;5483821;23;20151;-86
2022/03/27 15:45:54;;;;;;;13.95;6.28;;;;;;;17.32;35.00;102731.13;4914022;29;20892;-86
2022/03/27 15:49:00;;;;;;;9.17;5.50;;;;;;;17.34;37.36;102733.56;4913508;29;20053;-84
2022/03/27 15:58:46;;;;;;;;;;;;;;;;;;;;;
2022/03/27 18:58:32;;;;;;;17.90;6.13;;;;;;;10.41;58.44;102718.19;5193648;23;20237;-89
2022/03/27 19:03:26;;;;;;;13.65;5.43;;;;;;;10.30;59.56;102729.53;4913526;29;20063;-88
2022/03/27 19:18:47;;;;;;;13.50;5.63;;;;;;;9.99;61.31;102739.06;5468102;23;20040;-89
2022/03/27 19:21:51;;;;;;;14.50;5.53;;;;;;;9.85;61.71;102735.53;4931810;29;20869;-88
2022/03/27 19:24:16;;;;;;;13.23;5.85;;;;;;;9.76;63.96;102734.94;4926984;29;20055;-88
2022/03/27 19:26:42;;;;;;;11.75;6.07;;;;;;;9.67;63.53;102734.31;4933624;29;20028;-88
2022/03/27 19:29:08;;;;;;;11.23;5.60;;;;;;;9.62;63.88;102726.06;4933157;29;20106;-89
2022/03/27 19:57:32;;;;;;;20.33;6.82;;;;;;;9.14;67.57;102710.94;5413612;23;20080;-91
2022/03/27 20:23:45;;;;;;;22.80;7.85;;;;;;;8.57;69.27;102719.19;4971775;23;20399;-90
2022/03/27 20:26:11;;;;;;;23.20;7.30;;;;;;;8.51;70.06;102719.13;4915496;29;20240;-90
2022/03/27 20:28:38;;;;;;;21.27;7.17;;;;;;;8.43;70.50;102720.06;4972076;23;20130;-91
2022/03/27 20:32:04;;;;;;;;;;;;;;;;;;;;;
2022/03/27 20:38:41;;;;;;;20.95;8.77;;;;;;;8.21;70.68;102708.66;4933458;29;20047;-90
2022/03/27 20:41:42;;;;;;;18.90;8.02;;;;;;;8.06;70.77;102698.06;4981877;23;20047;-90
2022/03/27 20:46:55;;;;;;;27.03;10.70;;;;;;;8.02;72.14;102695.81;4938762;23;20060;-91
2022/03/27 20:49:20;;;;;;;33.60;14.13;;;;;;;7.97;72.43;102697.38;4927006;29;20811;-87
2022/03/27 20:51:46;;;;;;;38.73;17.87;;;;;;;7.88;72.97;102683.34;4911832;29;20032;-87
2022/03/27 20:54:11;;;;;;;37.90;19.37;;;;;;;7.87;73.18;102695.91;4911924;29;20336;-87
2022/03/27 20:56:48;;;;;;;43.03;19.13;;;;;;;7.67;73.16;102671.69;5120377;23;20043;-86
2022/03/27 20:59:29;;;;;;;43.10;20.38;;;;;;;7.69;72.46;102677.66;4921583;29;20059;-87
2022/03/27 21:05:25;;;;;;;56.38;26.67;;;;;;;7.67;73.46;102684.22;4927440;29;20055;-87
2022/03/27 21:07:57;;;;;;;64.18;29.50;;;;;;;7.68;73.72;102686.69;4931082;29;20552;-86
2022/03/27 21:10:26;;;;;;;65.63;32.67;;;;;;;7.63;74.15;102686.47;5008634;23;20508;-86
2022/03/27 21:20:24;;;;;;;76.43;39.63;;;;;;;7.50;73.46;102697.00;4931580;29;20077;-87
2022/03/27 21:22:49;;;;;;;75.53;39.03;;;;;;;7.41;74.78;102682.97;4931222;29;20098;-87
2022/03/27 21:34:55;;;;;;;62.55;30.83;;;;;;;7.25;75.78;102684.06;4934395;29;20038;-88
2022/03/27 21:37:24;;;;;;;61.50;31.37;;;;;;;7.16;76.32;102679.84;4933218;29;20031;-88
2022/03/27 21:39:51;;;;;;;63.55;31.85;;;;;;;7.13;76.86;102687.19;5139788;23;20006;-88
2022/03/27 21:42:16;;;;;;;57.00;29.63;;;;;;;7.06;77.20;102675.66;4935394;29;20063;-87
2022/03/27 21:44:42;;;;;;;62.60;26.93;;;;;;;6.99;77.03;102685.41;4933159;29;20112;-88
2022/03/27 21:47:08;;;;;;;49.60;23.40;;;;;;;6.94;78.38;102677.16;4933171;29;20036;-88
2022/03/27 21:54:56;;;;;;;53.05;23.15;;;;;;;6.65;79.44;102666.38;4960346;23;20082;-88
2022/03/27 21:57:23;;;;;;;49.05;21.08;;;;;;;6.56;79.29;102661.34;4954401;29;20066;-88
2022/03/27 22:00:41;;;;;;;43.95;20.52;;;;;;;6.61;79.48;102682.91;4978474;23;20047;-88
2022/03/27 22:03:09;;;;;;;45.25;20.33;;;;;;;6.44;80.10;102653.81;5226616;23;20107;-88
2022/03/27 22:05:34;;;;;;;50.60;21.48;;;;;;;6.47;81.43;102665.94;4955443;29;20114;-88
2022/03/27 22:11:25;;;;;;;40.03;19.40;;;;;;;6.37;81.38;102666.22;4885314;29;20044;-88
2022/03/27 22:13:57;;;;;;;40.30;19.42;;;;;;;6.34;81.48;102667.41;4877132;29;20109;-87
2022/03/27 22:16:22;;;;;;;40.58;18.83;;;;;;;6.30;81.68;102660.78;4878934;29;20033;-86
2022/03/27 22:21:19;;;;;;;42.58;18.00;;;;;;;6.30;82.01;102666.13;5222832;23;20166;-87
2022/03/27 22:23:44;;;;;;;37.08;17.58;;;;;;;6.19;82.50;102655.94;4938814;29;20469;-87
2022/03/27 22:26:10;;;;;;;36.57;17.60;;;;;;;6.19;82.90;102659.44;4936794;29;20099;-88
2022/03/27 22:28:36;;;;;;;27.87;14.70;;;;;;;6.16;82.34;102656.28;4936291;29;20360;-88
2022/03/27 22:31:51;;;;;;;33.78;15.40;;;;;;;6.10;81.75;102649.06;5180810;23;20114;-87
2022/03/27 22:56:40;;;;;;;25.83;12.40;;;;;;;5.53;83.16;102630.75;4926901;29;20063;-87
2022/03/27 22:59:08;;;;;;;29.90;13.73;;;;;;;5.35;84.44;102611.63;5018643;23;20010;-87
2022/03/27 23:01:46;;;;;;;29.73;12.07;;;;;;;5.28;83.81;102611.53;4933459;29;20079;-88
2022/03/27 23:04:52;;;;;;;29.05;12.48;;;;;;;5.42;83.93;102636.50;4931674;29;20027;-87
2022/03/27 23:20:09;;;;;;;30.30;12.38;;;;;;;5.14;85.46;102621.09;5011919;23;20079;-87
2022/03/27 23:22:35;;;;;;;24.48;11.60;;;;;;;5.16;86.06;102632.38;4952168;29;20055;-87
2022/03/27 23:25:02;;;;;;;32.45;13.15;;;;;;;5.12;86.23;102623.94;4951832;28;20023;-88
2022/03/27 23:27:27;;;;;;;30.45;12.68;;;;;;;5.06;86.91;102608.69;4950829;28;20031;-87
2022/03/27 23:32:44;;;;;;;28.75;12.20;;;;;;;4.90;87.54;102596.38;4891186;23;20040;-87
2022/03/27 23:56:50;;;;;;;20.60;9.57;;;;;;;4.59;87.96;102567.97;4951346;28;20046;-88
